Time;durP1;ratioP1;P1;durP2;ratioP2;P2;SDS_P1;SDS_P2;PMS_P1;PMS_P2;Temp;Humidity;BMP_temperature;BMP_pressure;BME280_temperature;BME280_humidity;BME280_pressure;Samples;Min_cycle;Max_cycle;Signal;HPM_P1;HPM_P2
2023/01/26 00:02:23;;;;;;;;;;;;;;;10.15;47.10;100302.44;4474723;31;34450;-65
2023/01/26 00:04:50;;;;;;;;;;;;;;;10.08;47.31;100301.13;4472355;31;34610;-66
2023/01/26 00:07:17;;;;;;;;;;;;;;;10.08;47.37;100303.78;4468962;31;33203;-63
2023/01/26 00:09:44;;;;;;;;;;;;;;;10.03;47.58;100298.72;4474418;31;33414;-68
2023/01/26 00:12:12;;;;;;;;;;;;;;;10.00;47.63;100290.88;4466888;31;32958;-65
2023/01/26 00:14:48;;;;;;;;;;;;;;;10.08;47.52;100285.06;4472921;32;34330;-65
2023/01/26 00:17:24;;;;;;;;;;;;;;;10.03;47.55;100289.84;4467007;31;34422;-67
2023/01/26 00:19:53;;;;;;;;;;;;;;;10.09;47.25;100284.09;4455751;32;32415;-65
2023/01/26 00:22:20;;;;;;;;;;;;;;;10.09;47.11;100285.91;4466826;31;33821;-65
2023/01/26 00:24:47;;;;;;;;;;;;;;;10.01;47.27;100278.38;4470473;31;33786;-65
2023/01/26 00:27:15;;;;;;;;;;;;;;;9.92;47.45;100285.19;4469136;31;34087;-66
2023/01/26 00:29:42;;;;;;;;;;;;;;;9.51;48.42;100279.75;4476002;31;33316;-64
2023/01/26 00:32:09;;;;;;;;;;;;;;;9.60;48.30;100275.63;4464551;31;34327;-66
2023/01/26 00:34:36;;;;;;;;;;;;;;;9.74;48.08;100275.66;4475009;31;34381;-66
2023/01/26 00:37:04;;;;;;;;;;;;;;;9.84;47.76;100282.13;4463749;31;34242;-64
2023/01/26 00:39:31;;;;;;;;;;;;;;;9.08;50.17;100277.00;4472099;31;33521;-67
2023/01/26 00:42:05;;;;;;;;;;;;;;;9.59;48.55;100282.78;4473861;32;34166;-65
2023/01/26 00:44:37;;;;;;;;;;;;;;;9.54;48.57;100285.75;4467740;31;33951;-64
2023/01/26 00:47:05;;;;;;;;;;;;;;;9.45;49.05;100278.31;4463690;31;34719;-64
2023/01/26 00:49:33;;;;;;;;;;;;;;;9.41;49.24;100278.59;4468635;31;33370;-67
2023/01/26 00:52:00;;;;;;;;;;;;;;;9.73;48.71;100279.28;4476031;31;34677;-64
2023/01/26 00:54:28;;;;;;;;;;;;;;;9.78;48.61;100283.34;4469039;31;34680;-64
2023/01/26 00:56:56;;;;;;;;;;;;;;;9.73;48.47;100274.78;4472538;31;35275;-64
2023/01/26 00:59:23;;;;;;;;;;;;;;;9.82;48.25;100267.97;4472681;31;34079;-64
2023/01/26 01:01:51;;;;;;;;;;;;;;;9.73;48.68;100265.91;4468803;31;34427;-64
2023/01/26 01:04:18;;;;;;;;;;;;;;;9.61;49.13;100269.34;4474312;31;34456;-64
2023/01/26 01:06:45;;;;;;;;;;;;;;;9.70;48.87;100263.44;4467557;31;34031;-64
2023/01/26 01:09:12;;;;;;;;;;;;;;;9.97;48.12;100267.00;4476609;31;34730;-65
2023/01/26 01:11:41;;;;;;;;;;;;;;;9.96;48.25;100264.44;4472681;31;34035;-66
2023/01/26 01:14:09;;;;;;;;;;;;;;;10.16;47.58;100264.00;4473967;31;34762;-69
2023/01/26 01:16:37;;;;;;;;;;;;;;;10.15;47.57;100261.47;4473722;31;35258;-67
2023/01/26 01:19:04;;;;;;;;;;;;;;;9.95;48.11;100262.72;4474482;31;33729;-66
2023/01/26 01:21:31;;;;;;;;;;;;;;;10.01;48.02;100252.47;4469738;31;35107;-65
2023/01/26 01:23:59;;;;;;;;;;;;;;;10.23;47.26;100245.75;4472765;32;33806;-65
2023/01/26 01:26:26;;;;;;;;;;;;;;;10.21;47.26;100253.87;4470195;31;34230;-65
2023/01/26 01:28:54;;;;;;;;;;;;;;;10.11;47.71;100249.22;4467120;32;34143;-65
2023/01/26 01:31:21;;;;;;;;;;;;;;;10.25;47.11;100243.84;4464928;31;34259;-65
2023/01/26 01:33:49;;;;;;;;;;;;;;;10.17;47.36;100246.16;4471755;31;32686;-65
2023/01/26 01:36:18;;;;;;;;;;;;;;;10.25;47.03;100244.69;4451261;31;33941;-68
2023/01/26 01:38:45;;;;;;;;;;;;;;;10.08;47.65;100247.63;4477101;32;34133;-68
2023/01/26 01:41:13;;;;;;;;;;;;;;;10.11;47.60;100241.19;4468661;31;34151;-68
2023/01/26 01:43:40;;;;;;;;;;;;;;;10.22;47.18;100244.03;4473609;31;34003;-69
2023/01/26 01:46:16;;;;;;;;;;;;;;;10.23;46.94;100240.41;4467088;32;32991;-66
2023/01/26 01:48:51;;;;;;;;;;;;;;;10.24;46.96;100242.09;4452011;32;33169;-68
2023/01/26 01:51:20;;;;;;;;;;;;;;;10.20;46.90;100236.09;4457251;32;35229;-67
2023/01/26 01:53:49;;;;;;;;;;;;;;;10.14;47.35;100235.66;4450367;32;34759;-65
2023/01/26 01:56:20;;;;;;;;;;;;;;;10.15;47.17;100232.88;4451844;32;34714;-65
2023/01/26 01:58:48;;;;;;;;;;;;;;;10.13;47.31;100236.59;4463053;31;32113;-67
2023/01/26 02:01:15;;;;;;;;;;;;;;;10.14;47.46;100230.28;4450079;32;34107;-68
2023/01/26 02:03:43;;;;;;;;;;;;;;;10.09;47.60;100222.59;4455034;32;33986;-66
2023/01/26 02:06:14;;;;;;;;;;;;;;;9.83;48.13;100216.25;4468624;31;34343;-67
2023/01/26 02:08:45;;;;;;;;;;;;;;;9.91;48.13;100213.06;4451909;32;33723;-66
2023/01/26 02:11:13;;;;;;;;;;;;;;;9.93;48.03;100205.81;4471868;31;33620;-66
2023/01/26 02:13:41;;;;;;;;;;;;;;;9.79;48.47;100206.69;4472333;31;34244;-65
2023/01/26 02:16:09;;;;;;;;;;;;;;;9.98;47.96;100207.25;4466114;32;33238;-65
2023/01/26 02:18:36;;;;;;;;;;;;;;;9.73;48.62;100210.63;4466447;31;33311;-65
2023/01/26 02:21:05;;;;;;;;;;;;;;;10.04;47.77;100204.13;4452105;32;34670;-65
2023/01/26 02:23:43;;;;;;;;;;;;;;;10.02;47.92;100200.72;4452364;31;35329;-64
2023/01/26 02:26:13;;;;;;;;;;;;;;;10.05;47.64;100197.00;4464182;32;33992;-65
2023/01/26 02:28:41;;;;;;;;;;;;;;;10.20;47.23;100195.97;4459395;32;33490;-65
2023/01/26 02:31:09;;;;;;;;;;;;;;;10.15;47.38;100191.91;4456049;32;35639;-65
2023/01/26 02:33:36;;;;;;;;;;;;;;;10.02;47.55;100182.00;4472790;31;34260;-66
2023/01/26 02:36:04;;;;;;;;;;;;;;;9.93;48.12;100189.78;4477810;31;35071;-68
2023/01/26 02:38:52;;;;;;;;;;;;;;;10.07;47.79;100175.50;4471567;31;33485;-65
2023/01/26 02:44:07;;;;;;;;;;;;;;;10.19;47.69;100166.66;4473224;31;34125;-64
2023/01/26 02:46:34;;;;;;;;;;;;;;;10.14;47.91;100171.44;4471886;31;34222;-68
2023/01/26 02:51:48;;;;;;;;;;;;;;;10.12;48.10;100165.38;4472697;31;33732;-67
2023/01/26 02:57:02;;;;;;;;;;;;;;;9.82;48.17;100141.47;4474551;31;34517;-66
2023/01/26 02:59:29;;;;;;;;;;;;;;;10.18;47.65;100141.75;4474299;31;32557;-65
2023/01/26 03:01:56;;;;;;;;;;;;;;;10.18;47.91;100140.88;4477214;31;33516;-64
2023/01/26 03:04:24;;;;;;;;;;;;;;;10.24;47.55;100141.31;4458915;32;34354;-67
2023/01/26 03:06:51;;;;;;;;;;;;;;;10.33;47.22;100139.88;4476639;31;34370;-65
2023/01/26 03:09:18;;;;;;;;;;;;;;;10.28;47.42;100139.34;4481430;31;33731;-64
2023/01/26 03:11:46;;;;;;;;;;;;;;;10.39;46.80;100138.59;4480340;31;34111;-64
2023/01/26 03:14:15;;;;;;;;;;;;;;;10.19;47.81;100135.41;4473352;31;34516;-64
2023/01/26 03:16:42;;;;;;;;;;;;;;;10.35;47.31;100137.09;4482848;31;33197;-64
2023/01/26 03:27:37;;;;;;;;;;;;;;;10.12;48.09;100126.09;4471014;31;33263;-67
2023/01/26 03:30:05;;;;;;;;;;;;;;;10.16;48.10;100122.25;4470598;31;32831;-69
2023/01/26 03:32:32;;;;;;;;;;;;;;;10.43;46.79;100119.56;4470332;31;34473;-66
2023/01/26 03:35:00;;;;;;;;;;;;;;;10.52;46.11;100109.19;4479228;31;33937;-67
2023/01/26 03:37:33;;;;;;;;;;;;;;;10.34;46.43;100112.16;4480963;31;35311;-65
2023/01/26 03:56:41;;;;;;;;;;;;;;;9.92;46.22;100098.00;4472815;31;35353;-66
2023/01/26 03:59:09;;;;;;;;;;;;;;;9.79;46.44;100091.72;4469365;31;33132;-65
2023/01/26 04:01:38;;;;;;;;;;;;;;;9.56;47.24;100085.22;4478587;31;33588;-65
2023/01/26 04:09:40;;;;;;;;;;;;;;;9.54;46.99;100087.16;4477975;31;34363;-64
2023/01/26 04:12:10;;;;;;;;;;;;;;;9.38;47.18;100087.28;4472231;31;33974;-65
2023/01/26 04:22:58;;;;;;;;;;;;;;;9.22;47.66;100079.41;4471573;31;32384;-66
2023/01/26 04:25:26;;;;;;;;;;;;;;;9.40;47.19;100071.16;4469889;31;35251;-64
2023/01/26 04:27:55;;;;;;;;;;;;;;;9.38;47.52;100068.59;4476053;31;35469;-65
2023/01/26 04:30:22;;;;;;;;;;;;;;;9.58;46.75;100069.97;4471602;31;34251;-66
2023/01/26 04:32:50;;;;;;;;;;;;;;;9.38;47.22;100070.41;4474622;31;33420;-66
2023/01/26 04:35:18;;;;;;;;;;;;;;;9.66;46.30;100069.44;4475741;31;33664;-77
2023/01/26 04:37:46;;;;;;;;;;;;;;;9.54;46.88;100071.13;4476666;31;33790;-64
2023/01/26 04:40:13;;;;;;;;;;;;;;;9.39;47.34;100064.09;4478955;31;34538;-65
2023/01/26 04:42:41;;;;;;;;;;;;;;;9.24;46.81;100064.13;4470272;31;32316;-66
2023/01/26 04:45:09;;;;;;;;;;;;;;;9.22;47.17;100067.87;4478785;31;35205;-64
2023/01/26 04:47:36;;;;;;;;;;;;;;;8.70;47.98;100072.00;4474219;31;34744;-64
2023/01/26 04:50:04;;;;;;;;;;;;;;;9.47;46.58;100060.00;4470816;31;34457;-64
2023/01/26 04:52:31;;;;;;;;;;;;;;;9.44;46.78;100057.50;4472551;31;33781;-64
2023/01/26 04:54:59;;;;;;;;;;;;;;;9.87;45.86;100064.50;4478142;31;32291;-66
2023/01/26 04:57:26;;;;;;;;;;;;;;;9.77;46.08;100058.91;4473336;31;34014;-63
2023/01/26 04:59:54;;;;;;;;;;;;;;;9.81;45.88;100049.72;4474350;31;35486;-63
2023/01/26 05:02:21;;;;;;;;;;;;;;;9.53;46.02;100054.25;4473234;31;33720;-64
2023/01/26 05:04:49;;;;;;;;;;;;;;;9.53;46.19;100058.72;4479347;31;34954;-64
2023/01/26 05:07:16;;;;;;;;;;;;;;;9.54;45.78;100063.13;4473855;31;34922;-64
2023/01/26 05:09:44;;;;;;;;;;;;;;;9.22;46.20;100059.84;4481124;31;34632;-63
2023/01/26 05:14:59;;;;;;;;;;;;;;;9.56;45.79;100050.50;4473768;31;34886;-64
2023/01/26 05:17:27;;;;;;;;;;;;;;;9.62;46.00;100049.25;4474093;31;33955;-65
2023/01/26 05:19:55;;;;;;;;;;;;;;;9.70;45.92;100060.28;4479586;31;35457;-64
2023/01/26 05:22:24;;;;;;;;;;;;;;;9.60;46.45;100052.03;4474390;31;33940;-64
2023/01/26 05:24:54;;;;;;;;;;;;;;;9.72;45.91;100055.69;4475905;31;33154;-64
2023/01/26 05:27:22;;;;;;;;;;;;;;;9.70;45.66;100057.63;4476698;31;33090;-65
2023/01/26 05:29:50;;;;;;;;;;;;;;;9.39;47.14;100056.09;4480829;31;34027;-64
2023/01/26 05:32:17;;;;;;;;;;;;;;;9.12;47.12;100053.38;4473082;31;33780;-65
2023/01/26 05:34:45;;;;;;;;;;;;;;;9.52;46.30;100057.00;4474783;31;35156;-63
2023/01/26 05:37:13;;;;;;;;;;;;;;;9.56;46.39;100055.84;4475153;31;35173;-64
2023/01/26 05:39:41;;;;;;;;;;;;;;;9.65;46.05;100057.91;4473355;31;35052;-64
2023/01/26 05:42:11;;;;;;;;;;;;;;;9.66;46.19;100053.41;4472776;31;33578;-66
2023/01/26 05:44:39;;;;;;;;;;;;;;;9.80;45.82;100058.72;4470039;31;34881;-65
2023/01/26 05:47:07;;;;;;;;;;;;;;;9.56;46.19;100055.84;4478704;31;34318;-73
2023/01/26 05:49:37;;;;;;;;;;;;;;;9.70;46.18;100066.50;4472460;31;35163;-64
2023/01/26 05:52:07;;;;;;;;;;;;;;;9.61;45.93;100060.91;4473448;31;32688;-65
2023/01/26 05:54:34;;;;;;;;;;;;;;;9.72;45.90;100063.69;4473952;31;34158;-65
2023/01/26 05:57:01;;;;;;;;;;;;;;;9.20;46.35;100065.28;4473850;31;34070;-65
2023/01/26 05:59:30;;;;;;;;;;;;;;;9.63;45.82;100064.31;4466987;31;34304;-63
2023/01/26 06:01:57;;;;;;;;;;;;;;;9.28;46.87;100064.81;4471096;31;33651;-64
2023/01/26 06:04:25;;;;;;;;;;;;;;;9.74;45.96;100069.81;4473693;31;33773;-64
2023/01/26 06:06:53;;;;;;;;;;;;;;;9.89;45.10;100060.78;4478129;31;34311;-66
2023/01/26 06:09:21;;;;;;;;;;;;;;;9.29;46.26;100069.19;4482220;31;34551;-62
2023/01/26 06:11:49;;;;;;;;;;;;;;;9.68;45.56;100059.53;4476559;31;33817;-64
2023/01/26 06:14:18;;;;;;;;;;;;;;;9.53;45.87;100059.59;4482606;31;34617;-67
2023/01/26 06:16:45;;;;;;;;;;;;;;;9.60;45.76;100059.16;4473521;32;35077;-67
2023/01/26 06:19:13;;;;;;;;;;;;;;;9.78;45.18;100061.47;4481319;31;35338;-65
2023/01/26 06:21:41;;;;;;;;;;;;;;;9.60;45.51;100062.72;4479683;32;34586;-66
2023/01/26 06:24:08;;;;;;;;;;;;;;;9.72;45.60;100058.34;4475205;31;33879;-66
2023/01/26 06:26:36;;;;;;;;;;;;;;;9.62;45.75;100057.25;4480570;32;35471;-65
2023/01/26 06:29:03;;;;;;;;;;;;;;;9.65;45.19;100060.56;4479406;31;34361;-64
2023/01/26 06:31:31;;;;;;;;;;;;;;;9.55;45.27;100057.66;4474152;31;33301;-65
2023/01/26 06:33:59;;;;;;;;;;;;;;;9.40;46.00;100058.66;4483123;31;33486;-66
2023/01/26 06:36:27;;;;;;;;;;;;;;;8.88;47.49;100059.31;4482664;31;34955;-65
2023/01/26 06:38:54;;;;;;;;;;;;;;;9.13;46.64;100055.09;4482141;31;35044;-64
2023/01/26 06:41:24;;;;;;;;;;;;;;;8.68;47.88;100062.38;4477794;31;33791;-64
2023/01/26 06:43:51;;;;;;;;;;;;;;;9.43;45.62;100055.78;4477681;31;34446;-63
2023/01/26 06:46:18;;;;;;;;;;;;;;;8.80;47.05;100059.81;4478128;31;34599;-62
2023/01/26 06:48:46;;;;;;;;;;;;;;;9.21;46.25;100058.13;4477361;32;34041;-63
2023/01/26 06:51:14;;;;;;;;;;;;;;;9.25;45.87;100057.00;4476053;31;32972;-62
2023/01/26 06:53:42;;;;;;;;;;;;;;;9.22;46.52;100055.38;4477085;31;34187;-63
2023/01/26 06:56:11;;;;;;;;;;;;;;;8.48;47.16;100059.12;4476293;32;34552;-63
2023/01/26 06:58:40;;;;;;;;;;;;;;;9.15;45.98;100046.03;4477498;31;34876;-64
2023/01/26 07:01:13;;;;;;;;;;;;;;;9.27;45.73;100044.37;4471248;31;33124;-63
2023/01/26 07:03:41;;;;;;;;;;;;;;;9.20;45.93;100048.41;4463027;32;32815;-63
2023/01/26 07:06:11;;;;;;;;;;;;;;;9.07;46.58;100051.00;4473744;31;34252;-63
2023/01/26 07:08:39;;;;;;;;;;;;;;;9.21;45.68;100047.44;4478360;32;33358;-65
2023/01/26 07:11:06;;;;;;;;;;;;;;;9.06;45.89;100051.97;4481592;31;33989;-64
2023/01/26 07:13:35;;;;;;;;;;;;;;;9.57;44.97;100044.22;4479242;32;34122;-64
2023/01/26 07:16:12;;;;;;;;;;;;;;;9.54;45.08;100047.94;4478552;32;34392;-63
2023/01/26 07:18:40;;;;;;;;;;;;;;;9.44;45.33;100040.63;4477287;31;34493;-63
2023/01/26 07:21:11;;;;;;;;;;;;;;;9.06;46.12;100041.28;4473028;31;33380;-63
2023/01/26 07:23:38;;;;;;;;;;;;;;;9.52;45.05;100035.62;4477176;31;34351;-65
2023/01/26 07:26:05;;;;;;;;;;;;;;;9.41;44.84;100039.00;4477337;31;34911;-64
2023/01/26 07:28:33;;;;;;;;;;;;;;;8.96;45.97;100037.50;4477297;32;35290;-63
2023/01/26 07:31:00;;;;;;;;;;;;;;;9.33;45.24;100036.81;4478801;32;33181;-65
2023/01/26 07:33:28;;;;;;;;;;;;;;;9.35;45.02;100042.09;4474754;31;34873;-64
2023/01/26 07:35:55;;;;;;;;;;;;;;;9.44;44.87;100036.13;4481545;31;34538;-64
2023/01/26 07:38:23;;;;;;;;;;;;;;;9.65;44.29;100036.53;4482974;31;35120;-64
2023/01/26 07:40:50;;;;;;;;;;;;;;;9.51;44.64;100028.56;4478985;32;33662;-64
2023/01/26 07:43:18;;;;;;;;;;;;;;;8.88;44.67;100029.94;4475877;32;34324;-64
2023/01/26 07:45:45;;;;;;;;;;;;;;;9.48;44.44;100029.63;4480044;32;34438;-64
2023/01/26 07:48:14;;;;;;;;;;;;;;;8.78;44.82;100031.50;4483721;31;35126;-64
2023/01/26 07:50:42;;;;;;;;;;;;;;;9.03;44.44;100025.47;4475497;32;33173;-65
2023/01/26 07:53:11;;;;;;;;;;;;;;;9.25;44.33;100025.78;4475214;31;33967;-63
2023/01/26 07:55:39;;;;;;;;;;;;;;;9.05;44.26;100031.53;4476845;31;33953;-64
2023/01/26 07:58:06;;;;;;;;;;;;;;;9.57;43.60;100033.53;4475906;32;34481;-64
2023/01/26 08:00:34;;;;;;;;;;;;;;;7.75;46.99;100043.00;4475393;32;33768;-63
2023/01/26 08:03:01;;;;;;;;;;;;;;;8.76;45.95;100028.03;4473155;32;35609;-65
2023/01/26 08:05:28;;;;;;;;;;;;;;;8.94;44.55;100026.91;4473114;31;34597;-64
2023/01/26 08:07:57;;;;;;;;;;;;;;;9.12;44.56;100018.66;4459636;32;35489;-65
2023/01/26 08:10:25;;;;;;;;;;;;;;;8.59;44.79;100027.28;4479218;31;33754;-64
2023/01/26 08:12:52;;;;;;;;;;;;;;;9.35;43.75;100025.19;4478886;31;33937;-64
2023/01/26 08:15:20;;;;;;;;;;;;;;;8.69;45.21;100032.91;4473158;31;34988;-65
2023/01/26 08:17:47;;;;;;;;;;;;;;;9.01;44.62;100030.87;4470304;31;35900;-65
2023/01/26 08:20:14;;;;;;;;;;;;;;;9.41;44.18;100031.00;4474390;32;33565;-64
2023/01/26 08:22:42;;;;;;;;;;;;;;;9.46;43.91;100028.88;4482247;31;35180;-64
2023/01/26 08:25:09;;;;;;;;;;;;;;;9.06;44.87;100023.44;4477261;32;34428;-64
2023/01/26 08:27:37;;;;;;;;;;;;;;;9.61;43.51;100023.47;4472860;31;35130;-65
2023/01/26 08:30:04;;;;;;;;;;;;;;;9.73;43.41;100033.37;4473585;32;34494;-66
2023/01/26 08:32:32;;;;;;;;;;;;;;;9.50;44.17;100025.06;4475891;31;35168;-65
2023/01/26 08:34:59;;;;;;;;;;;;;;;9.57;44.23;100026.34;4469640;32;34410;-64
2023/01/26 08:37:26;;;;;;;;;;;;;;;8.55;45.22;100028.44;4478567;31;34688;-65
2023/01/26 08:39:54;;;;;;;;;;;;;;;8.75;45.79;100024.53;4470022;31;33635;-66
2023/01/26 08:42:21;;;;;;;;;;;;;;;8.92;45.02;100028.78;4471822;32;34041;-64
2023/01/26 08:44:49;;;;;;;;;;;;;;;9.31;43.72;100020.06;4471864;31;34397;-64
2023/01/26 08:47:16;;;;;;;;;;;;;;;9.64;43.18;100018.78;4479728;31;34612;-65
2023/01/26 08:49:44;;;;;;;;;;;;;;;9.59;43.74;100025.38;4472155;31;34231;-65
2023/01/26 08:52:11;;;;;;;;;;;;;;;9.74;43.08;100027.91;4472606;31;34378;-65
2023/01/26 08:54:38;;;;;;;;;;;;;;;9.42;43.98;100022.00;4476458;31;35431;-65
2023/01/26 08:57:06;;;;;;;;;;;;;;;9.02;44.02;100024.59;4473527;31;34588;-65
2023/01/26 08:59:33;;;;;;;;;;;;;;;9.47;43.14;100025.25;4470235;32;33879;-68
2023/01/26 09:02:00;;;;;;;;;;;;;;;9.08;44.58;100020.66;4476380;31;34893;-68
2023/01/26 09:04:28;;;;;;;;;;;;;;;9.36;43.42;100024.22;4478183;32;35508;-67
2023/01/26 09:06:55;;;;;;;;;;;;;;;8.85;44.36;100025.66;4476079;31;34529;-69
2023/01/26 09:09:23;;;;;;;;;;;;;;;8.69;45.91;100024.06;4474356;32;33330;-69
2023/01/26 09:11:50;;;;;;;;;;;;;;;8.96;43.89;100030.34;4476326;31;34436;-66
2023/01/26 09:14:17;;;;;;;;;;;;;;;8.54;45.63;100031.19;4477527;31;34532;-67
2023/01/26 09:16:44;;;;;;;;;;;;;;;8.73;44.95;100021.13;4480901;31;34227;-66
2023/01/26 09:19:12;;;;;;;;;;;;;;;8.17;45.83;100028.94;4477736;31;33770;-67
2023/01/26 09:21:39;;;;;;;;;;;;;;;8.70;44.73;100023.97;4474259;31;34131;-66
2023/01/26 09:24:06;;;;;;;;;;;;;;;8.60;45.19;100025.47;4478871;31;34480;-68
2023/01/26 09:26:34;;;;;;;;;;;;;;;8.12;45.48;100024.81;4472748;32;34213;-66
2023/01/26 09:29:01;;;;;;;;;;;;;;;8.95;44.00;100017.91;4479197;31;33620;-68
2023/01/26 09:31:29;;;;;;;;;;;;;;;8.43;44.76;100023.00;4479768;31;35029;-67
2023/01/26 09:33:56;;;;;;;;;;;;;;;9.24;43.82;100017.88;4478429;31;35342;-66
2023/01/26 09:36:24;;;;;;;;;;;;;;;8.90;44.66;100019.19;4463787;32;34107;-66
2023/01/26 09:38:52;;;;;;;;;;;;;;;9.09;44.13;100009.91;4480843;31;34572;-73
2023/01/26 09:41:32;;;;;;;;;;;;;;;9.43;43.55;100013.03;4482371;31;35084;-67
2023/01/26 09:44:02;;;;;;;;;;;;;;;8.80;44.18;100014.44;4477253;31;35442;-67
2023/01/26 09:46:35;;;;;;;;;;;;;;;8.63;44.94;100012.81;4461783;32;35447;-68
2023/01/26 09:49:05;;;;;;;;;;;;;;;8.28;45.44;100000.75;4482934;32;33844;-66
2023/01/26 09:51:33;;;;;;;;;;;;;;;8.97;44.15;100001.81;4472410;32;34262;-67
2023/01/26 09:54:23;;;;;;;;;;;;;;;8.74;45.11;99997.94;4481084;32;34030;-68
2023/01/26 09:56:50;;;;;;;;;;;;;;;8.87;45.46;99998.88;4463909;32;34254;-67
2023/01/26 09:59:30;;;;;;;;;;;;;;;7.19;47.64;100002.72;4475379;31;32102;-68
2023/01/26 10:02:00;;;;;;;;;;;;;;;7.72;47.68;99999.69;4457558;31;32606;-69
2023/01/26 10:04:35;;;;;;;;;;;;;;;8.48;45.71;99987.09;4475764;31;34198;-68
2023/01/26 10:07:04;;;;;;;;;;;;;;;8.84;44.33;99975.06;4461480;31;35112;-69
2023/01/26 10:09:40;;;;;;;;;;;;;;;8.33;46.09;99977.34;4460530;32;33482;-66
2023/01/26 10:12:19;;;;;;;;;;;;;;;8.39;45.96;99977.00;4461786;32;34307;-66
2023/01/26 10:14:51;;;;;;;;;;;;;;;8.56;44.51;99974.12;4478832;32;34491;-68
2023/01/26 10:17:21;;;;;;;;;;;;;;;7.69;46.92;99977.59;4452332;32;34438;-67
2023/01/26 10:19:50;;;;;;;;;;;;;;;7.73;46.84;99969.44;4477198;31;33539;-67
2023/01/26 10:22:19;;;;;;;;;;;;;;;7.81;47.86;99961.84;4461754;32;34761;-68
2023/01/26 10:24:47;;;;;;;;;;;;;;;7.70;48.13;99963.34;4473100;31;32985;-69
2023/01/26 10:27:14;;;;;;;;;;;;;;;7.31;48.01;99955.87;4477225;31;34580;-67
2023/01/26 10:29:41;;;;;;;;;;;;;;;6.57;49.90;99956.50;4479956;31;33316;-66
2023/01/26 10:32:11;;;;;;;;;;;;;;;5.97;52.17;99956.19;4469172;32;35345;-68
2023/01/26 10:34:40;;;;;;;;;;;;;;;6.90;49.73;99942.28;4458330;32;36617;-66
2023/01/26 10:37:30;;;;;;;;;;;;;;;7.16;48.76;99939.00;4476808;32;33687;-67
2023/01/26 10:40:02;;;;;;;;;;;;;;;6.98;48.59;99938.25;4465698;31;33793;-66
2023/01/26 10:42:31;;;;;;;;;;;;;;;7.09;48.53;99939.44;4478585;32;34397;-66
2023/01/26 10:45:00;;;;;;;;;;;;;;;6.83;48.70;99931.13;4470716;31;33307;-65
2023/01/26 10:47:28;;;;;;;;;;;;;;;7.42;47.05;99942.81;4477618;31;34238;-67
2023/01/26 10:50:12;;;;;;;;;;;;;;;7.50;47.54;99934.38;4454428;32;34657;-66
2023/01/26 10:52:47;;;;;;;;;;;;;;;7.76;47.08;99927.47;4476553;31;34045;-68
2023/01/26 10:55:20;;;;;;;;;;;;;;;7.70;46.97;99925.19;4463033;32;35214;-66
2023/01/26 10:57:48;;;;;;;;;;;;;;;7.11;48.66;99929.56;4476061;32;34370;-65
2023/01/26 11:00:21;;;;;;;;;;;;;;;6.97;48.92;99930.38;4480530;31;33967;-66
2023/01/26 11:02:50;;;;;;;;;;;;;;;7.26;49.24;99923.34;4477279;31;33912;-66
2023/01/26 11:05:24;;;;;;;;;;;;;;;7.84;47.68;99919.88;4457343;32;34083;-66
2023/01/26 11:07:59;;;;;;;;;;;;;;;7.96;46.29;99918.28;4477096;32;34509;-67
2023/01/26 11:10:27;;;;;;;;;;;;;;;7.41;47.42;99903.78;4481252;32;33610;-67
2023/01/26 11:13:21;;;;;;;;;;;;;;;7.54;47.06;99919.91;4480449;32;34295;-67
2023/01/26 11:16:07;;;;;;;;;;;;;;;7.92;46.89;99914.94;4472067;32;34621;-67
2023/01/26 11:18:53;;;;;;;;;;;;;;;7.60;47.59;99908.03;4478267;32;35190;-66
2023/01/26 11:21:31;;;;;;;;;;;;;;;7.22;49.03;99908.50;4463026;32;34468;-66
2023/01/26 11:24:16;;;;;;;;;;;;;;;7.74;48.47;99896.53;4452285;32;34360;-68
2023/01/26 11:26:43;;;;;;;;;;;;;;;7.41;48.22;99893.16;4458822;32;35144;-67
2023/01/26 11:29:17;;;;;;;;;;;;;;;7.77;47.49;99886.56;4478464;31;34434;-66
2023/01/26 11:32:03;;;;;;;;;;;;;;;8.53;45.22;99886.28;4475477;32;33868;-66
2023/01/26 11:34:48;;;;;;;;;;;;;;;8.45;45.46;99885.94;4479569;32;33654;-68
2023/01/26 11:37:49;;;;;;;;;;;;;;;7.84;46.32;99892.38;4477289;32;33508;-68
2023/01/26 11:40:31;;;;;;;;;;;;;;;8.04;46.52;99883.16;4446377;32;34158;-67
2023/01/26 11:43:05;;;;;;;;;;;;;;;8.43;45.03;99885.16;4460956;32;33537;-67
2023/01/26 11:45:39;;;;;;;;;;;;;;;7.36;48.15;99878.41;4473327;31;33727;-67
2023/01/26 11:48:18;;;;;;;;;;;;;;;8.07;46.13;99878.50;4477733;32;34256;-68
2023/01/26 11:50:55;;;;;;;;;;;;;;;7.99;47.00;99870.09;4471887;31;34127;-68
2023/01/26 11:53:34;;;;;;;;;;;;;;;7.50;48.08;99870.44;4476040;32;33640;-68
2023/01/26 11:56:02;;;;;;;;;;;;;;;7.37;47.95;99857.00;4470527;32;34108;-66
2023/01/26 11:58:31;;;;;;;;;;;;;;;7.24;48.52;99862.19;4480743;32;34535;-67
2023/01/26 12:00:59;;;;;;;;;;;;;;;7.42;47.58;99859.41;4459536;32;34584;-66
2023/01/26 12:03:32;;;;;;;;;;;;;;;6.82;49.67;99851.41;4457342;32;34576;-68
2023/01/26 12:06:01;;;;;;;;;;;;;;;7.73;47.35;99849.53;4455620;32;34951;-67
2023/01/26 12:08:38;;;;;;;;;;;;;;;7.42;47.81;99835.44;4456052;32;34137;-68
2023/01/26 12:11:24;;;;;;;;;;;;;;;7.37;48.00;99833.03;4459606;32;34510;-68
2023/01/26 12:14:10;;;;;;;;;;;;;;;7.68;46.79;99826.72;4478823;32;33428;-67
2023/01/26 12:16:38;;;;;;;;;;;;;;;7.90;45.90;99825.37;4471099;32;35550;-67
2023/01/26 12:19:10;;;;;;;;;;;;;;;6.94;49.56;99824.94;4470640;32;34304;-68
2023/01/26 12:21:39;;;;;;;;;;;;;;;7.38;47.80;99820.56;4460887;32;34190;-68
2023/01/26 12:24:07;;;;;;;;;;;;;;;7.89;46.13;99813.84;4481783;32;33865;-67
2023/01/26 12:26:54;;;;;;;;;;;;;;;7.78;47.19;99812.81;4459113;31;34372;-68
2023/01/26 12:29:24;;;;;;;;;;;;;;;8.33;45.45;99823.50;4456223;32;34102;-67
2023/01/26 12:31:59;;;;;;;;;;;;;;;8.28;46.06;99812.31;4477920;32;33357;-67
2023/01/26 12:34:27;;;;;;;;;;;;;;;8.36;45.41;99819.78;4454548;32;35424;-67
2023/01/26 12:37:14;;;;;;;;;;;;;;;8.24;45.71;99810.75;4473552;31;33911;-67
2023/01/26 12:39:45;;;;;;;;;;;;;;;8.31;44.98;99812.06;4476449;32;34570;-67
2023/01/26 12:42:15;;;;;;;;;;;;;;;8.13;46.76;99819.47;4458147;32;34236;-68
2023/01/26 12:44:46;;;;;;;;;;;;;;;8.45;46.50;99811.25;4478591;31;33226;-67
2023/01/26 12:47:27;;;;;;;;;;;;;;;7.92;45.88;99803.00;4462011;32;34652;-67
2023/01/26 12:49:54;;;;;;;;;;;;;;;7.91;45.69;99792.44;4457049;32;34306;-68
2023/01/26 12:52:22;;;;;;;;;;;;;;;8.42;45.52;99808.75;4475261;31;34373;-67
2023/01/26 12:54:54;;;;;;;;;;;;;;;8.37;45.38;99800.16;4475426;31;33535;-66
2023/01/26 12:57:22;;;;;;;;;;;;;;;8.57;44.24;99793.56;4460667;31;34819;-66
2023/01/26 12:59:49;;;;;;;;;;;;;;;8.73;43.58;99794.28;4459182;32;34111;-67
2023/01/26 13:02:23;;;;;;;;;;;;;;;9.09;43.27;99795.44;4452734;32;34359;-67
2023/01/26 13:04:50;;;;;;;;;;;;;;;9.05;43.69;99797.47;4477480;31;33755;-67
2023/01/26 13:07:25;;;;;;;;;;;;;;;8.81;43.44;99791.09;4474246;32;33701;-66
2023/01/26 13:10:17;;;;;;;;;;;;;;;8.81;43.66;99793.75;4472772;31;34490;-66
2023/01/26 13:12:44;;;;;;;;;;;;;;;8.78;44.01;99799.31;4464634;32;34500;-65
2023/01/26 13:15:13;;;;;;;;;;;;;;;9.14;43.51;99784.44;4467008;32;33758;-65
2023/01/26 13:17:45;;;;;;;;;;;;;;;9.21;43.72;99791.94;4474344;32;33847;-67
2023/01/26 13:20:32;;;;;;;;;;;;;;;8.95;43.72;99796.34;4464206;32;34166;-66
2023/01/26 13:22:59;;;;;;;;;;;;;;;8.75;43.50;99789.69;4474005;32;34399;-66
2023/01/26 13:25:30;;;;;;;;;;;;;;;8.90;44.86;99786.97;4475696;32;33169;-67
2023/01/26 13:27:58;;;;;;;;;;;;;;;7.45;47.29;99782.84;4457055;32;34919;-66
2023/01/26 13:30:25;;;;;;;;;;;;;;;8.45;44.32;99781.91;4458092;32;34805;-67
2023/01/26 13:33:01;;;;;;;;;;;;;;;8.78;43.89;99784.12;4469682;32;34752;-66
2023/01/26 13:35:28;;;;;;;;;;;;;;;8.86;44.59;99783.66;4471594;32;33526;-67
2023/01/26 13:38:19;;;;;;;;;;;;;;;9.13;42.95;99783.59;4467411;32;34144;-67
2023/01/26 13:40:48;;;;;;;;;;;;;;;8.73;44.23;99788.06;4465651;32;33934;-67
2023/01/26 13:43:19;;;;;;;;;;;;;;;7.89;46.79;99786.34;4480507;32;34628;-67
2023/01/26 13:45:59;;;;;;;;;;;;;;;8.86;44.23;99789.84;4467201;32;33339;-66
2023/01/26 13:48:32;;;;;;;;;;;;;;;8.82;43.95;99790.13;4467265;32;34809;-67
2023/01/26 13:51:01;;;;;;;;;;;;;;;8.58;45.41;99790.81;4482768;31;34169;-69
2023/01/26 13:53:31;;;;;;;;;;;;;;;8.87;43.86;99790.69;4463107;32;35411;-67